Latest Weather Observations for Redesdale

IDV60801

Issued at 9:31 pm EST Saturday 1 August 2015 (issued every 30 minutes, with the page automatically refreshed every 10 minutes)

About weather observations | Map of weather stations | Latest weather observations for VIC | Other Formats
Station Details ID: 088051 Name: REDESDALE Lat: -37.02 Lon: 144.52 Height: 290.0 m
Data from the previous 72 hours. | See also: Recent months at Redesdale
Date/Time
EST
Temp
°C
App
Temp
°C
Dew
Point
Rel
Hum
%
Delta-T
°C
Wind Press
QNH
hPa
Press
MSL
hPa
Rain
since 9 am
mm
Dir
 
Spd
km/h
Gust
km/h
Spd
kts
Gust
kts
01/09:30pm 6.0 2.8 -0.5 63 2.5 SW 6 7 3 4 - - 0.2
01/09:00pm 6.2 3.0 -0.3 63 2.5 SW 6 7 3 4 - - 0.2
01/08:30pm 6.3 3.9 -0.2 63 2.5 WSW 2 4 1 2 - - 0.2
01/08:00pm 6.7 4.7 0.2 63 2.6 CALM 0 0 0 0 - - 0.2
01/07:30pm 6.6 3.9 0.1 63 2.6 SSW 4 6 2 3 - - 0.2
01/07:00pm 7.3 4.7 0.7 63 2.7 WSW 4 6 2 3 - - 0.2
01/06:30pm 7.3 4.1 0.7 63 2.7 SSW 7 11 4 6 - - 0.2
01/06:00pm 8.1 5.6 1.5 63 2.7 WSW 4 6 2 3 - - 0.2
01/05:30pm 8.3 5.8 1.7 63 2.8 SSW 4 6 2 3 - - 0.2
01/05:00pm 8.8 5.8 2.2 63 2.8 SSW 7 9 4 5 - - 0.2
01/04:30pm 9.6 7.3 2.9 63 2.9 W 4 7 2 4 - - 0.2
01/04:00pm 9.9 7.7 3.2 63 2.9 W 4 6 2 3 - - 0.2
01/03:30pm 10.2 8.0 3.5 63 3.0 W 4 7 2 4 - - 0.2
01/03:00pm 10.1 7.9 3.4 63 3.0 SSW 4 6 2 3 - - 0.2
01/02:30pm 9.8 7.2 3.1 63 2.9 SSW 6 9 3 5 - - 0.2
01/02:00pm 10.0 6.8 3.3 63 3.0 S 9 13 5 7 - - 0.2
01/01:30pm 9.8 5.8 3.1 63 2.9 SSW 13 20 7 11 - - 0.2
01/01:00pm 9.7 5.4 3.0 63 2.9 SSW 15 24 8 13 - - 0.2
01/12:30pm 9.3 5.3 2.6 63 2.9 SSW 13 19 7 10 - - 0.2
01/12:00pm 9.6 5.6 2.9 63 2.9 SSW 13 19 7 10 - - 0.2
01/11:30am 9.8 5.8 3.1 63 2.9 SW 13 19 7 10 - - 0.2
01/11:00am 9.6 6.0 2.9 63 2.9 SSW 11 19 6 10 - - 0.2
01/10:30am 9.6 6.0 2.9 63 2.9 SW 11 20 6 11 - - 0.2
01/10:00am 8.5 6.1 1.9 63 2.8 WNW 4 11 2 6 - - 0.2
01/09:30am 8.0 6.2 1.4 63 2.7 CALM 0 0 0 0 - - 0.2
01/09:00am 7.6 5.4 1.0 63 2.7 NNE 2 4 1 2 - - 2.6
01/08:30am 7.1 4.4 0.5 63 2.7 NNE 4 6 2 3 - - 2.2
01/08:00am 7.0 4.7 0.5 63 2.6 NNE 2 4 1 2 - - 1.6
01/07:30am 6.9 3.8 0.4 63 2.6 N 6 7 3 4 - - 1.0
01/07:00am 7.0 4.0 0.5 63 2.6 NNW 6 7 3 4 - - 0.8
01/06:30am 6.8 3.7 0.3 63 2.6 NNE 6 7 3 4 - - 0.4
01/06:00am 6.9 3.8 0.4 63 2.6 N 6 9 3 5 - - 0.0
01/05:30am 6.9 3.3 0.4 63 2.6 N 9 15 5 8 - - 0.0
01/05:00am 6.9 3.3 0.4 63 2.6 N 9 15 5 8 - - 0.0
01/04:30am 7.2 4.0 0.6 63 2.7 N 7 15 4 8 - - 0.0
01/04:00am 7.2 4.0 0.6 63 2.7 N 7 11 4 6 - - 0.0
01/03:30am 7.1 3.5 0.5 63 2.7 NNE 9 13 5 7 - - 0.0
01/03:00am 6.9 3.3 0.4 63 2.6 NNE 9 15 5 8 - - 0.0
01/02:30am 7.1 3.9 0.5 63 2.7 NNE 7 11 4 6 - - 0.0
01/02:00am 7.2 3.6 0.6 63 2.7 NNE 9 13 5 7 - - 0.0
01/01:30am 7.0 3.4 0.5 63 2.6 NNE 9 19 5 10 - - 0.0
01/01:00am 6.8 3.5 0.3 63 2.6 NNE 7 13 4 7 - - 0.0
01/12:30am 6.8 2.4 0.3 63 2.6 NNE 13 19 7 10 - - 0.0
01/12:00am 6.7 2.7 0.2 63 2.6 N 11 15 6 8 - - 0.0
 
Date/Time
EST
Temp
°C
App
Temp
°C
Dew
Point
Rel
Hum
%
Delta-T
°C
Wind Press
QNH
hPa
Press
MSL
hPa
Rain
since 9 am
mm
Dir
 
Spd
km/h
Gust
km/h
Spd
kts
Gust
kts
31/11:30pm 6.6 2.2 0.1 63 2.6 NNE 13 20 7 11 - - 0.0
31/11:00pm 6.3 2.6 -0.2 63 2.5 NNE 9 15 5 8 - - 0.0
31/10:30pm 6.0 2.2 -0.5 63 2.5 N 9 13 5 7 - - 0.0
31/10:00pm 6.3 2.6 -0.2 63 2.5 N 9 13 5 7 - - 0.0
31/09:30pm 6.1 1.6 -0.4 63 2.5 N 13 19 7 10 - - 0.0
31/09:00pm 6.2 1.7 -0.3 63 2.5 N 13 17 7 9 - - 0.0
31/08:30pm 6.0 2.2 -0.5 63 2.5 N 9 13 5 7 - - 0.0
31/08:00pm 5.6 2.2 -0.9 63 2.5 N 7 9 4 5 - - 0.0
31/07:30pm 5.4 1.9 -1.1 63 2.5 NNE 7 9 4 5 - - 0.0
31/07:00pm 5.9 2.7 -0.6 63 2.5 NNE 6 7 3 4 - - 0.0
31/06:30pm 6.2 3.4 -0.3 63 2.5 NNE 4 6 2 3 - - 0.0
31/06:00pm 7.2 3.2 0.6 63 2.7 N 11 19 6 10 - - 0.0
31/05:30pm 8.1 3.5 1.5 63 2.7 N 15 20 8 11 - - 0.0
31/05:00pm 8.8 3.9 2.2 63 2.8 N 17 24 9 13 - - 0.0
31/04:30pm 9.6 5.2 2.9 63 2.9 NNE 15 24 8 13 - - 0.0
31/04:00pm 10.4 6.2 3.7 63 3.0 NNE 15 22 8 12 - - 0.0
31/03:30pm 10.5 6.3 3.8 63 3.0 NNE 15 22 8 12 - - 0.0
31/03:00pm 11.3 8.0 4.5 63 3.1 N 11 17 6 9 - - 0.0
31/02:30pm 11.2 7.9 4.4 63 3.1 NNE 11 17 6 9 - - 0.0
31/02:00pm 10.5 7.1 3.8 63 3.0 N 11 19 6 10 - - 0.0
31/01:30pm 11.1 8.5 4.3 63 3.1 N 7 13 4 7 - - 0.0
31/01:00pm 10.2 7.1 3.5 63 3.0 N 9 15 5 8 - - 0.0
31/12:30pm 9.8 6.6 3.1 63 2.9 N 9 17 5 9 - - 0.0
31/12:00pm 9.8 7.6 3.1 63 2.9 NNE 4 9 2 5 - - 0.0
31/11:30am 9.7 7.8 3.0 63 2.9 WSW 2 7 1 4 - - 0.0
31/11:00am 8.4 5.6 1.8 63 2.8 WSW 6 9 3 5 - - 0.0
31/10:30am 8.3 5.8 1.7 63 2.8 WSW 4 6 2 3 - - 0.0
31/10:00am 7.0 5.1 0.5 63 2.6 CALM 0 6 0 3 - - 0.0
31/09:30am 6.2 3.8 -0.3 63 2.5 WSW 2 6 1 3 - - 0.0
31/09:00am 2.7 -0.5 -3.6 63 2.2 SW 4 6 2 3 - - 1.4
31/08:30am 0.6 -2.8 -5.6 63 2.0 SSW 4 6 2 3 - - 1.4
31/08:00am -0.5 -4.0 -6.7 63 1.9 S 4 6 2 3 - - 1.4
31/07:30am -1.1 -4.7 -7.2 63 1.8 SW 4 6 2 3 - - 1.4
31/07:00am -0.8 -4.0 -6.9 63 1.8 SSW 2 6 1 3 - - 1.4
31/06:30am 0.3 -3.5 -5.9 63 2.0 SSW 6 6 3 3 - - 1.4
31/06:00am 0.7 -2.3 -5.5 63 2.0 SW 2 4 1 2 - - 1.4
31/05:30am -0.1 -4.0 -6.3 63 1.9 S 6 6 3 3 - - 1.4
31/05:00am 0.1 -3.9 -6.1 63 2.0 SSW 7 9 4 5 - - 1.4
31/04:30am -0.5 -4.4 -6.7 63 1.9 SSW 6 9 3 5 - - 1.4
31/04:00am 0.6 -3.4 -5.6 63 2.0 SSW 7 9 4 5 - - 1.4
31/03:30am 0.6 -3.4 -5.6 63 2.0 S 7 9 4 5 - - 1.4
31/03:00am 0.9 -2.9 -5.3 63 2.1 SSW 6 7 3 4 - - 1.4
31/02:30am 0.9 -2.9 -5.3 63 2.1 S 6 7 3 4 - - 1.4
31/02:00am 1.4 -1.6 -4.9 63 2.1 SW 2 4 1 2 - - 1.2
31/01:30am 1.5 -2.2 -4.8 63 2.2 SW 6 7 3 4 - - 1.2
31/01:00am 3.0 -0.2 -3.3 63 2.2 SSW 4 4 2 2 - - 1.2
31/12:30am 3.5 0.7 -2.9 63 2.3 WSW 2 4 1 2 - - 1.2
31/12:00am 5.7 2.8 -0.8 63 2.5 S 4 6 2 3 - - 1.2
 
Date/Time
EST
Temp
°C
App
Temp
°C
Dew
Point
Rel
Hum
%
Delta-T
°C
Wind Press
QNH
hPa
Press
MSL
hPa
Rain
since 9 am
mm
Dir
 
Spd
km/h
Gust
km/h
Spd
kts
Gust
kts
30/11:30pm 6.4 3.6 -0.1 63 2.6 SSE 4 4 2 2 - - 1.2
30/11:00pm 6.9 3.8 0.4 63 2.6 SSE 6 9 3 5 - - 1.2
30/10:30pm 6.9 4.6 0.4 63 2.6 S 2 4 1 2 - - 1.0
30/10:00pm 6.9 3.8 0.4 63 2.6 SE 6 9 3 5 - - 0.8
30/09:30pm 7.1 3.5 0.5 63 2.7 N 9 13 5 7 - - 0.6
30/09:00pm 7.2 3.6 0.6 63 2.7 NNE 9 13 5 7 - - 0.4
30/08:30pm 7.3 3.3 0.7 63 2.7 N 11 15 6 8 - - 0.4
30/08:00pm 7.3 3.3 0.7 63 2.7 N 11 15 6 8 - - 0.4
30/07:30pm 7.5 3.2 0.9 63 2.7 N 13 19 7 10 - - 0.2
30/07:00pm 7.4 2.3 0.8 63 2.7 N 17 22 9 12 - - 0.2
30/06:30pm 7.1 2.7 0.5 63 2.7 N 13 19 7 10 - - 0.2
30/06:00pm 7.5 3.6 0.9 63 2.7 NNE 11 19 6 10 - - 0.2
30/05:30pm 8.0 2.4 1.4 63 2.7 N 20 28 11 15 - - 0.0
30/05:00pm 8.5 2.6 1.9 63 2.8 N 22 32 12 17 - - 0.0
30/04:30pm 8.6 3.1 2.0 63 2.8 N 20 28 11 15 - - 0.0
30/04:00pm 8.9 3.1 2.3 63 2.8 N 22 37 12 20 - - 0.0
30/03:30pm 9.1 2.9 2.4 63 2.9 N 24 35 13 19 - - 0.0
30/03:00pm 8.8 3.4 2.2 63 2.8 NNE 20 32 11 17 - - 0.0
30/02:30pm 8.8 3.4 2.2 63 2.8 N 20 28 11 15 - - 0.0
30/02:00pm 8.6 3.3 2.0 63 2.8 N 19 30 10 16 - - 0.0
30/01:30pm 8.6 2.4 2.0 63 2.8 NNE 24 39 13 21 - - 0.0
30/01:00pm 8.3 2.0 1.7 63 2.8 N 24 35 13 19 - - 0.0
30/12:30pm 8.6 3.3 2.0 63 2.8 N 19 26 10 14 - - 0.0
30/12:00pm 8.0 3.0 1.4 63 2.7 N 17 24 9 13 - - 0.0
30/11:30am 7.5 2.0 0.9 63 2.7 N 19 28 10 15 - - 0.0
30/11:00am 7.5 2.0 0.9 63 2.7 N 19 26 10 14 - - 0.0
30/10:30am 6.4 2.3 -0.1 63 2.6 N 11 19 6 10 - - 0.0
30/10:00am 5.7 0.8 -0.8 63 2.5 N 15 22 8 12 - - 0.0
30/09:30am 5.4 0.8 -1.1 63 2.5 N 13 19 7 10 - - 0.0
30/09:00am 4.6 0.7 -1.8 63 2.4 N 9 13 5 7 - - 0.0
30/08:30am 3.4 -0.1 -3.0 63 2.3 NNE 6 7 3 4 - - 0.0
30/08:00am 3.1 -0.1 -3.2 63 2.2 N 4 6 2 3 - - 0.0
30/07:30am 2.0 -0.9 -4.3 63 2.2 NNW 2 4 1 2 - - 0.0
30/07:00am 2.2 -1.1 -4.1 63 2.1 NNW 4 4 2 2 - - 0.0
30/06:30am 2.7 -0.1 -3.6 63 2.2 N 2 6 1 3 - - 0.0
30/06:00am 3.3 -0.2 -3.1 63 2.2 N 6 7 3 4 - - 0.0
30/05:30am 3.6 0.1 -2.8 63 2.3 N 6 7 3 4 - - 0.0
30/05:00am 4.1 1.0 -2.3 63 2.3 NNE 4 9 2 5 - - 0.0
30/04:30am 4.6 2.0 -1.8 63 2.4 NW 2 4 1 2 - - 0.0
30/04:00am 4.2 1.5 -2.2 63 2.3 NW 2 2 1 1 - - 0.0
30/03:30am 4.1 1.4 -2.3 63 2.3 NW 2 4 1 2 - - 0.0
30/03:00am 3.8 1.1 -2.6 63 2.3 NW 2 4 1 2 - - 0.0
30/02:30am 4.7 2.5 -1.7 63 2.4 CALM 0 0 0 0 - - 0.0
30/02:00am 4.5 1.5 -1.9 63 2.3 NW 4 4 2 2 - - 0.0
30/01:30am 4.2 1.2 -2.2 63 2.3 N 4 6 2 3 - - 0.0
30/01:00am 4.8 1.8 -1.6 63 2.4 NNE 4 6 2 3 - - 0.0
30/12:30am 5.5 2.6 -1.0 63 2.5 NNE 4 6 2 3 - - 0.0
30/12:00am 6.1 2.9 -0.4 63 2.5 N 6 7 3 4 - - 0.0
 
Date/Time
EST
Temp
°C
App
Temp
°C
Dew
Point
Rel
Hum
%
Delta-T
°C
Wind Press
QNH
hPa
Press
MSL
hPa
Rain
since 9 am
mm
Dir
 
Spd
km/h
Gust
km/h
Spd
kts
Gust
kts
29/11:30pm 5.6 2.7 -0.9 63 2.5 N 4 6 2 3 - - 0.0
29/11:00pm 5.7 2.5 -0.8 63 2.5 N 6 7 3 4 - - 0.0
29/10:30pm 6.2 3.0 -0.3 63 2.5 N 6 6 3 3 - - 0.0
29/10:00pm 6.2 3.0 -0.3 63 2.5 N 6 7 3 4 - - 0.0

Other Formats:

Comma delimited format used in spreadsheet applications
http://www.bom.gov.au/fwo/IDV60801/IDV60801.94859.axf

JavaScript Object Notation format (JSON) in row-major order
http://www.bom.gov.au/fwo/IDV60801/IDV60801.94859.json